Terminal Aerodrome Forecast
Issued by NWS Jackson, MS

Home | Current Version | Previous Version | Text Only | Print | Product List | Glossary On
Versions: 1 2 3 4 5 6 7 8 9 10 11 12 13 14
000
FTUS44 KJAN 251744
TAFHBG
TAF
KHBG 251744Z 2518/2618 VRB04KT 6SM -RA VCTS SCT008 BKN015CB OVC050
     FM252100 23007KT P6SM VCSH SCT025 BKN040
     FM260000 19006KT P6SM SCT040
     FM260800 VRB03KT 1SM BR BKN005
     FM261500 28006KT P6SM SCT015=

USA.gov is the U.S. government's official web portal to all federal, state and local government web resources and services.